createdAt,value
2022-11-17T00:01:55.434Z,98961.28
2022-11-17T00:04:25.271Z,98878.84
2022-11-17T00:06:51.976Z,98987.19
2022-11-17T00:09:18.801Z,98967.28
2022-11-17T00:12:04.887Z,98985.78
2022-11-17T00:14:36.844Z,98988.31
2022-11-17T00:17:06.964Z,98795.13
2022-11-17T00:19:52.833Z,98988.72
2022-11-17T00:22:19.546Z,98959.72
2022-11-17T00:24:46.161Z,98857.59
2022-11-17T00:27:13.389Z,98965.88
2022-11-17T00:29:40.257Z,98909.75
2022-11-17T00:32:30.984Z,98957.84
2022-11-17T00:34:57.575Z,98962.69
2022-11-17T00:37:24.994Z,98830.97
2022-11-17T00:39:55.207Z,98971.56
2022-11-17T00:42:24.542Z,98888.94
2022-11-17T00:44:51.173Z,98721.38
2022-11-17T00:47:17.771Z,98901.47
2022-11-17T00:49:44.449Z,98937.25
2022-11-17T00:52:11.180Z,98936.88
2022-11-17T00:54:37.816Z,98866.81
2022-11-17T00:57:04.663Z,98944.25
2022-11-17T00:59:31.401Z,98874.75
2022-11-17T01:01:57.968Z,98938.84
2022-11-17T01:04:24.791Z,98936.47
2022-11-17T01:06:51.637Z,98964.06
2022-11-17T01:09:21.479Z,98952.19
2022-11-17T01:11:50.117Z,98871.88
2022-11-17T01:14:25.980Z,98925.34
2022-11-17T01:16:53.744Z,98949.44
2022-11-17T01:19:21.578Z,98950.00
2022-11-17T01:21:48.544Z,98886.94
2022-11-17T01:24:16.800Z,98835.09
2022-11-17T01:26:45.307Z,98851.06
2022-11-17T01:29:14.416Z,98920.97
2022-11-17T01:31:43.589Z,98747.28
2022-11-17T01:34:10.887Z,98916.06
2022-11-17T01:36:59.208Z,98943.66
2022-11-17T01:39:28.130Z,98895.06
2022-11-17T01:41:55.305Z,98934.53
2022-11-17T01:44:49.724Z,98931.91
2022-11-17T01:47:34.931Z,98927.84
2022-11-17T01:50:39.121Z,98866.41
2022-11-17T01:53:10.730Z,98933.47
2022-11-17T01:55:42.717Z,98874.03
2022-11-17T01:58:15.243Z,98865.44
2022-11-17T02:00:42.044Z,98807.16
2022-11-17T02:03:09.295Z,98839.84
2022-11-17T02:06:06.885Z,98907.78
2022-11-17T02:08:38.286Z,98915.31
2022-11-17T02:11:11.077Z,98889.38
2022-11-17T02:13:39.146Z,98829.19
2022-11-17T02:16:10.849Z,98904.91
2022-11-17T02:18:37.563Z,98862.88
2022-11-17T02:21:28.313Z,98904.75
2022-11-17T02:24:15.578Z,98870.00
2022-11-17T02:27:22.923Z,98824.00
2022-11-17T02:30:04.639Z,98914.19
2022-11-17T02:32:59.832Z,98847.69
2022-11-17T02:35:48.635Z,98905.31
2022-11-17T02:38:24.494Z,98810.31
2022-11-17T02:41:04.990Z,98909.63
2022-11-17T02:43:52.820Z,98905.56
2022-11-17T02:46:23.492Z,98835.34
2022-11-17T02:48:55.045Z,98793.78
2022-11-17T02:51:24.439Z,98876.22
2022-11-17T02:53:53.824Z,98913.56
2022-11-17T02:56:21.007Z,98762.59
2022-11-17T02:58:52.365Z,98785.28
2022-11-17T03:01:22.068Z,98895.16
2022-11-17T03:04:07.530Z,98902.16
2022-11-17T03:06:36.870Z,98896.41
2022-11-17T03:09:11.923Z,98836.53
2022-11-17T03:11:44.487Z,98893.00
2022-11-17T03:14:34.479Z,98900.22
2022-11-17T03:17:14.090Z,98897.88
2022-11-17T03:20:15.401Z,98844.16
2022-11-17T03:23:00.909Z,98897.03
2022-11-17T03:25:30.394Z,98894.16
2022-11-17T03:28:01.539Z,98896.38
2022-11-17T03:30:33.282Z,98865.06
2022-11-17T03:33:11.595Z,98812.19
2022-11-17T03:35:44.024Z,98893.31
2022-11-17T03:38:17.569Z,98687.19
2022-11-17T03:40:50.066Z,98882.31
2022-11-17T03:43:18.902Z,98874.56
2022-11-17T03:45:50.160Z,98842.66
2022-11-17T03:48:24.677Z,98916.28
2022-11-17T03:51:10.359Z,98889.78
2022-11-17T03:53:37.910Z,98664.97
2022-11-17T03:56:29.354Z,98895.59
2022-11-17T03:59:11.241Z,98778.59
2022-11-17T04:01:38.240Z,98784.19
2022-11-17T04:04:05.325Z,98884.91
2022-11-17T04:06:32.060Z,98775.22
2022-11-17T04:08:58.753Z,98878.00
2022-11-17T04:11:44.088Z,98789.34
2022-11-17T04:14:29.626Z,98785.78
2022-11-17T04:16:56.364Z,98845.81
2022-11-17T04:19:23.118Z,98874.97
2022-11-17T04:21:49.794Z,98852.31
2022-11-17T04:24:16.456Z,98738.59
2022-11-17T04:27:01.754Z,98893.97
2022-11-17T04:29:28.682Z,98863.13
2022-11-17T04:31:55.824Z,98826.69
2022-11-17T04:34:22.518Z,98883.56
2022-11-17T04:36:49.166Z,98674.94
2022-11-17T04:39:16.114Z,98662.72
2022-11-17T04:41:57.487Z,98825.75
2022-11-17T04:44:26.872Z,98818.69
2022-11-17T04:46:54.733Z,98820.00
2022-11-17T04:49:22.625Z,98866.31
2022-11-17T04:51:50.514Z,98887.88
2022-11-17T04:54:19.864Z,98761.44
2022-11-17T04:56:48.031Z,98646.13
2022-11-17T04:59:14.835Z,98806.66
2022-11-17T05:01:41.607Z,98661.59
2022-11-17T05:04:10.634Z,98787.50
2022-11-17T05:06:40.099Z,98875.22
2022-11-17T05:09:09.518Z,98781.94
2022-11-17T05:11:54.932Z,98801.94
2022-11-17T05:14:23.943Z,98840.22
2022-11-17T05:17:10.366Z,98840.09
2022-11-17T05:19:48.150Z,98858.44
2022-11-17T05:22:36.589Z,98866.47
2022-11-17T05:25:04.334Z,98853.22
2022-11-17T05:27:31.430Z,98811.44
2022-11-17T05:29:58.067Z,98728.09
2022-11-17T05:32:24.901Z,98875.81
2022-11-17T05:34:51.722Z,98785.59
2022-11-17T05:37:18.685Z,98852.25
2022-11-17T05:39:45.518Z,98764.75
2022-11-17T05:42:12.227Z,98799.94
2022-11-17T05:44:39.901Z,98870.94
2022-11-17T05:47:06.918Z,98874.66
2022-11-17T05:49:33.613Z,98738.34
2022-11-17T05:52:00.251Z,98872.69
2022-11-17T05:54:27.084Z,98850.97
2022-11-17T05:57:03.068Z,98840.03
2022-11-17T05:59:41.547Z,98856.50
2022-11-17T06:02:16.969Z,98864.00
2022-11-17T06:04:44.015Z,98852.88
2022-11-17T06:07:11.240Z,98811.84
2022-11-17T06:09:41.457Z,98848.88
2022-11-17T06:12:08.662Z,98825.59
2022-11-17T06:14:35.717Z,98845.94
2022-11-17T06:17:08.757Z,98733.22
2022-11-17T06:19:43.926Z,98774.94
2022-11-17T06:22:12.521Z,98723.06
2022-11-17T06:24:44.677Z,98755.59
2022-11-17T06:27:15.363Z,98871.13
2022-11-17T06:29:44.868Z,98764.81
2022-11-17T06:32:17.602Z,98792.44
2022-11-17T06:34:49.098Z,98825.53
2022-11-17T06:37:17.454Z,98776.63
2022-11-17T06:39:44.347Z,98746.47
2022-11-17T06:42:11.010Z,98823.34
2022-11-17T06:44:37.770Z,98720.94
2022-11-17T06:47:04.523Z,98745.13
2022-11-17T06:49:31.321Z,98796.63
2022-11-17T06:51:58.075Z,98779.91
2022-11-17T06:54:24.750Z,98817.81
2022-11-17T06:56:52.478Z,98679.94
2022-11-17T06:59:19.342Z,98846.53
2022-11-17T07:01:46.175Z,98802.31
2022-11-17T07:04:12.935Z,98845.97
2022-11-17T07:06:39.646Z,98651.09
2022-11-17T07:09:06.793Z,98828.25
2022-11-17T07:11:36.240Z,98834.25
2022-11-17T07:14:03.308Z,98815.88
2022-11-17T07:16:31.206Z,98778.69
2022-11-17T07:18:59.302Z,98828.00
2022-11-17T07:21:26.164Z,98814.97
2022-11-17T07:23:52.886Z,98745.47
2022-11-17T07:26:19.712Z,98714.91
2022-11-17T07:28:46.522Z,98646.13
2022-11-17T07:31:13.251Z,98780.41
2022-11-17T07:33:39.917Z,98778.28
2022-11-17T07:36:09.746Z,98814.50
2022-11-17T07:38:39.293Z,98781.72
2022-11-17T07:41:07.310Z,98819.13
2022-11-17T07:43:35.296Z,98750.81
2022-11-17T07:46:13.263Z,98836.94
2022-11-17T07:48:41.012Z,98765.16
2022-11-17T07:51:07.559Z,98803.63
2022-11-17T07:53:35.316Z,98830.22
2022-11-17T07:56:06.980Z,98607.38
2022-11-17T07:58:34.286Z,98807.31
2022-11-17T08:01:05.649Z,98759.75
2022-11-17T08:03:32.651Z,98755.34
2022-11-17T08:06:03.803Z,98768.28
2022-11-17T08:08:30.647Z,98786.72
2022-11-17T08:11:01.374Z,98801.06
2022-11-17T08:13:28.143Z,98791.38
2022-11-17T08:15:59.318Z,98821.13
2022-11-17T08:18:26.547Z,98807.03
2022-11-17T08:21:00.434Z,98813.16
2022-11-17T08:23:27.484Z,98609.47
2022-11-17T08:25:54.733Z,98781.06
2022-11-17T08:28:21.376Z,98761.72
2022-11-17T08:30:48.467Z,98780.47
2022-11-17T08:33:18.094Z,98766.25
2022-11-17T08:35:44.677Z,98656.88
2022-11-17T08:38:15.380Z,98787.63
2022-11-17T08:40:42.519Z,98766.78
2022-11-17T08:43:09.334Z,98504.97
2022-11-17T08:45:35.953Z,98720.03
2022-11-17T08:48:04.325Z,98738.63
2022-11-17T08:50:31.016Z,98676.97
2022-11-17T08:52:57.886Z,98657.25
2022-11-17T08:55:26.371Z,98800.94
2022-11-17T08:57:53.335Z,98756.00
2022-11-17T09:00:21.819Z,98659.22
2022-11-17T09:02:49.389Z,98665.72
2022-11-17T09:05:16.098Z,98761.75
2022-11-17T09:07:43.032Z,98727.47
2022-11-17T09:10:11.144Z,98752.53
2022-11-17T09:12:43.755Z,98742.81
2022-11-17T09:15:10.856Z,98576.19
2022-11-17T09:17:37.593Z,98600.31
2022-11-17T09:20:05.086Z,98736.22
2022-11-17T09:22:31.771Z,98711.28
2022-11-17T09:24:58.364Z,98660.38
2022-11-17T09:27:24.944Z,98678.06
2022-11-17T09:29:51.673Z,98736.97
2022-11-17T09:32:19.407Z,98723.03
2022-11-17T09:34:46.503Z,98685.78
2022-11-17T09:37:13.356Z,98705.59
2022-11-17T09:39:39.980Z,98635.69
2022-11-17T09:42:06.886Z,98575.53
2022-11-17T09:44:41.604Z,98724.69
2022-11-17T09:47:25.872Z,98634.53
2022-11-17T09:50:02.394Z,98610.16
2022-11-17T09:52:37.727Z,98714.09
2022-11-17T09:55:34.354Z,98719.41
2022-11-17T09:58:19.518Z,98647.25
2022-11-17T10:00:48.960Z,98711.03
2022-11-17T10:03:18.217Z,98568.03
2022-11-17T10:05:45.542Z,98660.63
2022-11-17T10:08:17.609Z,98745.50
2022-11-17T10:10:50.252Z,98671.19
2022-11-17T10:13:30.700Z,98675.28
2022-11-17T10:16:06.304Z,98657.59
2022-11-17T10:18:38.097Z,98632.91
2022-11-17T10:21:07.308Z,98595.81
2022-11-17T10:23:41.270Z,98719.19
2022-11-17T10:26:14.210Z,98678.41
2022-11-17T10:28:41.135Z,98596.84
2022-11-17T10:31:12.318Z,98676.22
2022-11-17T10:33:44.922Z,98525.31
2022-11-17T10:36:28.896Z,98433.03
2022-11-17T10:38:57.524Z,98659.06
2022-11-17T10:41:28.503Z,98660.66
2022-11-17T10:44:24.626Z,98574.44
2022-11-17T10:47:00.546Z,98654.78
2022-11-17T10:49:33.243Z,98561.34
2022-11-17T10:52:08.661Z,98644.13
2022-11-17T10:54:35.216Z,98550.19
2022-11-17T10:57:07.335Z,98602.03
2022-11-17T10:59:44.326Z,98564.34
2022-11-17T11:02:31.188Z,98523.47
2022-11-17T11:05:07.111Z,98621.22
2022-11-17T11:07:33.868Z,98588.88
2022-11-17T11:10:03.600Z,98611.25
2022-11-17T11:12:36.479Z,98643.69
2022-11-17T11:15:03.897Z,98503.03
2022-11-17T11:17:30.580Z,98596.00
2022-11-17T11:19:57.935Z,98485.84
2022-11-17T11:22:49.537Z,98604.28
2022-11-17T11:25:44.976Z,98612.50
2022-11-17T11:28:33.274Z,98578.34
2022-11-17T11:31:24.639Z,98607.28
2022-11-17T11:34:06.277Z,98641.16
2022-11-17T11:36:44.418Z,98471.47
2022-11-17T11:39:44.442Z,98533.94
2022-11-17T11:42:22.966Z,98606.22
2022-11-17T11:45:18.404Z,98558.72
2022-11-17T11:48:03.257Z,98558.41
2022-11-17T11:51:05.297Z,98596.72
2022-11-17T11:53:42.434Z,98551.16
2022-11-17T11:56:19.895Z,98539.09
2022-11-17T11:58:53.213Z,98553.91
2022-11-17T12:01:23.143Z,98531.72
2022-11-17T12:04:06.272Z,98605.09
2022-11-17T12:06:45.124Z,98513.09
2022-11-17T12:09:20.616Z,98593.84
2022-11-17T12:12:02.217Z,98496.56
2022-11-17T12:14:31.470Z,98387.81
2022-11-17T12:17:26.335Z,98582.31
2022-11-17T12:19:55.268Z,98580.69
2022-11-17T12:22:33.816Z,98577.31
2022-11-17T12:25:06.093Z,98518.63
2022-11-17T12:27:35.584Z,98573.88
2022-11-17T12:30:30.822Z,98571.91
2022-11-17T12:32:59.135Z,98561.84
2022-11-17T12:35:28.778Z,98566.47
2022-11-17T12:38:14.118Z,98563.03
2022-11-17T12:40:44.565Z,98567.78
2022-11-17T12:43:25.648Z,98473.75
2022-11-17T12:45:52.291Z,98553.78
2022-11-17T12:48:34.369Z,98235.13
2022-11-17T12:51:08.102Z,98549.09
2022-11-17T12:54:05.158Z,98545.75
2022-11-17T12:57:08.229Z,98548.19
2022-11-17T12:59:45.011Z,98537.88
2022-11-17T13:02:21.126Z,98536.38
2022-11-17T13:05:14.674Z,98535.38
2022-11-17T13:07:41.828Z,98521.03
2022-11-17T13:10:23.941Z,98497.06
2022-11-17T13:12:50.595Z,98456.91
2022-11-17T13:15:23.731Z,98487.41
2022-11-17T13:17:53.808Z,98542.19
2022-11-17T13:20:29.353Z,98537.97
2022-11-17T13:23:06.588Z,98349.63
2022-11-17T13:25:34.226Z,98517.22
2022-11-17T13:28:05.112Z,98456.34
2022-11-17T13:30:33.425Z,98471.44
2022-11-17T13:33:03.670Z,98189.59
2022-11-17T13:35:34.197Z,98508.72
2022-11-17T13:38:12.113Z,98461.66
2022-11-17T13:40:40.913Z,98522.19
2022-11-17T13:43:12.896Z,98432.13
2022-11-17T13:45:40.643Z,98475.13
2022-11-17T13:48:07.325Z,98513.25
2022-11-17T13:50:37.320Z,98461.78
2022-11-17T13:53:23.400Z,98521.69
2022-11-17T13:55:51.609Z,98463.66
2022-11-17T13:58:25.850Z,98535.38
2022-11-17T14:00:59.087Z,98529.81
2022-11-17T14:03:40.095Z,98519.88
2022-11-17T14:06:09.549Z,98542.03
2022-11-17T14:08:38.486Z,98523.84
2022-11-17T14:11:11.145Z,98522.06
2022-11-17T14:13:40.138Z,98506.63
2022-11-17T14:16:21.419Z,98468.66
2022-11-17T14:19:05.273Z,98485.28
2022-11-17T14:21:32.763Z,98496.06
2022-11-17T14:24:10.362Z,98509.81
2022-11-17T14:26:44.695Z,98498.72
2022-11-17T14:29:13.396Z,98504.59
2022-11-17T14:31:39.910Z,98395.81
2022-11-17T14:34:06.443Z,98443.34
2022-11-17T14:36:33.529Z,98496.38
2022-11-17T14:39:01.859Z,98291.19
2022-11-17T14:41:29.185Z,98495.84
2022-11-17T14:43:56.091Z,98471.09
2022-11-17T14:46:25.775Z,98454.94
2022-11-17T14:48:53.989Z,98419.53
2022-11-17T14:51:21.604Z,98479.41
2022-11-17T14:53:48.701Z,98404.25
2022-11-17T14:56:18.062Z,98473.81
2022-11-17T14:58:46.899Z,98473.56
2022-11-17T15:01:25.886Z,98467.31
2022-11-17T15:03:53.206Z,98417.66
2022-11-17T15:06:20.499Z,98415.03
2022-11-17T15:08:58.982Z,98497.16
2022-11-17T15:11:27.754Z,98410.66
2022-11-17T15:13:54.346Z,98416.22
2022-11-17T15:16:21.230Z,98390.56
2022-11-17T15:18:48.474Z,98301.31
2022-11-17T15:21:16.147Z,98430.28
2022-11-17T15:23:44.080Z,98448.44
2022-11-17T15:26:18.747Z,98393.84
2022-11-17T15:28:46.247Z,98422.59
2022-11-17T15:31:15.767Z,98452.25
2022-11-17T15:33:44.644Z,98449.81
2022-11-17T15:36:13.994Z,98430.78
2022-11-17T15:38:40.887Z,98446.00
2022-11-17T15:41:10.114Z,98393.84
2022-11-17T15:43:39.476Z,98456.13
2022-11-17T15:46:11.160Z,98404.56
2022-11-17T15:48:40.141Z,98371.88
2022-11-17T15:51:10.255Z,98333.06
2022-11-17T15:53:38.609Z,98428.34
2022-11-17T15:56:16.727Z,98365.69
2022-11-17T15:58:43.976Z,98368.25
2022-11-17T16:01:26.974Z,98419.56
2022-11-17T16:04:01.488Z,98254.00
2022-11-17T16:06:29.627Z,98389.25
2022-11-17T16:08:59.641Z,98392.06
2022-11-17T16:11:27.605Z,98343.34
2022-11-17T16:13:58.202Z,98396.63
2022-11-17T16:16:26.375Z,98406.31
2022-11-17T16:18:53.263Z,98403.69
2022-11-17T16:21:20.733Z,98340.06
2022-11-17T16:23:58.045Z,98391.81
2022-11-17T16:26:26.757Z,98396.44
2022-11-17T16:29:01.597Z,98397.47
2022-11-17T16:31:30.863Z,98395.56
2022-11-17T16:33:59.672Z,98363.03
2022-11-17T16:36:32.868Z,98323.84
2022-11-17T16:39:05.874Z,98364.63
2022-11-17T16:41:34.736Z,98334.31
2022-11-17T16:44:02.178Z,98282.09
2022-11-17T16:46:31.508Z,98387.72
2022-11-17T16:49:05.520Z,98348.31
2022-11-17T16:51:32.791Z,98390.47
2022-11-17T16:54:02.180Z,98347.19
2022-11-17T16:56:29.694Z,98399.59
2022-11-17T16:58:56.980Z,98315.19
2022-11-17T17:01:27.380Z,98384.03
2022-11-17T17:04:01.604Z,98386.41
2022-11-17T17:06:28.858Z,98349.84
2022-11-17T17:08:57.902Z,98376.31
2022-11-17T17:11:24.841Z,98326.78
2022-11-17T17:13:53.016Z,98353.28
2022-11-17T17:16:20.219Z,98347.59
2022-11-17T17:18:47.274Z,98310.69
2022-11-17T17:21:19.224Z,98395.97
2022-11-17T17:23:45.918Z,98217.00
2022-11-17T17:26:16.859Z,98350.44
2022-11-17T17:28:46.026Z,98376.78
2022-11-17T17:31:20.814Z,98371.91
2022-11-17T17:33:48.952Z,98386.34
2022-11-17T17:36:21.120Z,98347.47
2022-11-17T17:38:54.614Z,98334.16
2022-11-17T17:41:23.370Z,98364.06
2022-11-17T17:43:56.380Z,98307.19
2022-11-17T17:46:23.955Z,98150.88
2022-11-17T17:48:50.842Z,98141.84
2022-11-17T17:51:23.861Z,98280.53
2022-11-17T17:53:51.269Z,98327.94
2022-11-17T17:56:20.422Z,98316.88
2022-11-17T17:58:48.895Z,98208.22
2022-11-17T18:01:21.707Z,98354.41
2022-11-17T18:03:50.310Z,98327.69
2022-11-17T18:06:19.256Z,98345.09
2022-11-17T18:08:46.594Z,98274.91
2022-11-17T18:11:20.794Z,98355.31
2022-11-17T18:13:49.853Z,98390.94
2022-11-17T18:16:19.647Z,98349.38
2022-11-17T18:18:46.352Z,98256.34
2022-11-17T18:21:16.458Z,98290.66
2022-11-17T18:23:43.407Z,98277.19
2022-11-17T18:26:17.471Z,98344.91
2022-11-17T18:28:50.600Z,98344.13
2022-11-17T18:31:17.288Z,98270.59
2022-11-17T18:33:45.333Z,98349.31
2022-11-17T18:36:12.281Z,98319.34
2022-11-17T18:38:39.149Z,98285.72
2022-11-17T18:41:11.835Z,98051.28
2022-11-17T18:43:39.451Z,98253.75
2022-11-17T18:46:08.773Z,98089.25
2022-11-17T18:48:38.358Z,98308.88
2022-11-17T18:51:25.828Z,98259.44
2022-11-17T18:53:54.561Z,98166.72
2022-11-17T18:56:28.740Z,98264.47
2022-11-17T18:58:55.935Z,98363.31
2022-11-17T19:01:25.200Z,98297.13
2022-11-17T19:03:54.507Z,98264.03
2022-11-17T19:06:24.644Z,98236.41
2022-11-17T19:08:52.260Z,98292.41
2022-11-17T19:11:21.179Z,98327.03
2022-11-17T19:13:48.299Z,98336.44
2022-11-17T19:16:24.345Z,98297.53
2022-11-17T19:18:53.717Z,98326.78
2022-11-17T19:21:25.856Z,98333.72
2022-11-17T19:23:55.068Z,98227.13
2022-11-17T19:26:24.578Z,98338.72
2022-11-17T19:28:58.832Z,98325.78
2022-11-17T19:31:26.259Z,98250.38
2022-11-17T19:33:53.959Z,98301.75
2022-11-17T19:36:23.778Z,98233.03
2022-11-17T19:38:52.752Z,98235.22
2022-11-17T19:41:22.366Z,98284.72
2022-11-17T19:43:52.526Z,98323.00
2022-11-17T19:46:19.380Z,98315.81
2022-11-17T19:48:46.350Z,98223.88
2022-11-17T19:51:21.372Z,98232.16
2022-11-17T19:53:49.826Z,98315.06
2022-11-17T19:56:16.927Z,98105.56
2022-11-17T19:58:43.791Z,98114.44
2022-11-17T20:01:15.620Z,98286.91
2022-11-17T20:03:43.093Z,98310.91
2022-11-17T20:06:11.755Z,98238.66
2022-11-17T20:08:40.231Z,98303.53
2022-11-17T20:11:19.143Z,98294.03
2022-11-17T20:13:46.008Z,98319.38
2022-11-17T20:16:21.455Z,98334.66
2022-11-17T20:18:54.591Z,98290.47
2022-11-17T20:21:21.953Z,98262.75
2022-11-17T20:23:49.302Z,98257.31
2022-11-17T20:26:19.314Z,98308.81
2022-11-17T20:28:46.478Z,98294.09
2022-11-17T20:31:19.390Z,98230.16
2022-11-17T20:33:47.358Z,98234.06
2022-11-17T20:36:23.521Z,98246.22
2022-11-17T20:38:55.492Z,98335.06
2022-11-17T20:41:23.341Z,98238.03
2022-11-17T20:43:52.110Z,98349.25
2022-11-17T20:46:19.899Z,98275.69
2022-11-17T20:48:46.807Z,98212.41
2022-11-17T20:51:18.570Z,98301.75
2022-11-17T20:53:45.695Z,98299.50
2022-11-17T20:56:13.947Z,98211.91
2022-11-17T20:58:40.739Z,98147.41
2022-11-17T21:01:16.074Z,98082.81
2022-11-17T21:03:43.651Z,98248.69
2022-11-17T21:06:10.681Z,98299.03
2022-11-17T21:08:40.221Z,98303.00
2022-11-17T21:11:09.505Z,98295.41
2022-11-17T21:13:36.955Z,98182.31
2022-11-17T21:16:07.352Z,98247.88
2022-11-17T21:18:34.408Z,98294.44
2022-11-17T21:21:01.719Z,98247.69
2022-11-17T21:23:28.824Z,98265.97
2022-11-17T21:25:55.512Z,98303.00
2022-11-17T21:28:22.218Z,98117.88
2022-11-17T21:30:48.855Z,98146.50
2022-11-17T21:33:15.517Z,98258.44
2022-11-17T21:35:42.161Z,98179.59
2022-11-17T21:38:10.709Z,98231.00
2022-11-17T21:40:37.584Z,98180.72
2022-11-17T21:43:04.498Z,98285.41
2022-11-17T21:45:32.903Z,98161.50
2022-11-17T21:47:59.794Z,98269.00
2022-11-17T21:50:26.574Z,98176.25
2022-11-17T21:52:53.276Z,98284.13
2022-11-17T21:55:20.094Z,98225.53
2022-11-17T21:57:50.263Z,98307.84
2022-11-17T22:00:17.836Z,98197.88
2022-11-17T22:02:44.637Z,98270.78
2022-11-17T22:05:11.558Z,98264.75
2022-11-17T22:07:38.248Z,98231.19
2022-11-17T22:10:05.547Z,98283.31
2022-11-17T22:12:32.139Z,98208.69
2022-11-17T22:14:58.724Z,98299.19
2022-11-17T22:17:25.415Z,98176.53
2022-11-17T22:19:52.175Z,98113.88
2022-11-17T22:22:18.774Z,98244.66
2022-11-17T22:24:49.616Z,98305.38
2022-11-17T22:27:16.660Z,98249.25
2022-11-17T22:29:43.291Z,98210.97
2022-11-17T22:32:10.039Z,98235.28
2022-11-17T22:34:36.747Z,98243.47
2022-11-17T22:37:03.471Z,98310.09
2022-11-17T22:39:30.146Z,98263.84
2022-11-17T22:41:56.738Z,98272.59
2022-11-17T22:44:23.423Z,98279.88
2022-11-17T22:46:50.087Z,98283.25
2022-11-17T22:49:16.930Z,98194.56
2022-11-17T22:52:02.125Z,98207.25
2022-11-17T22:54:29.242Z,98221.66
2022-11-17T22:56:56.605Z,98262.56
2022-11-17T22:59:24.199Z,98316.78
2022-11-17T23:01:50.919Z,98260.53
2022-11-17T23:04:17.699Z,98267.56
2022-11-17T23:06:44.951Z,98196.81
2022-11-17T23:09:12.419Z,98220.97
2022-11-17T23:11:39.148Z,98109.63
2022-11-17T23:14:08.944Z,98233.97
2022-11-17T23:16:39.177Z,98259.59
2022-11-17T23:19:06.347Z,98316.19
2022-11-17T23:21:33.038Z,98304.91
2022-11-17T23:23:59.636Z,98294.00
2022-11-17T23:26:26.992Z,98227.06
2022-11-17T23:28:53.655Z,98256.31
2022-11-17T23:31:20.422Z,98281.09
2022-11-17T23:33:47.955Z,98223.16
2022-11-17T23:36:21.965Z,98256.25
2022-11-17T23:38:50.270Z,98332.66
2022-11-17T23:41:19.353Z,98302.72
2022-11-17T23:43:49.042Z,98323.13
2022-11-17T23:46:18.427Z,98209.44
2022-11-17T23:48:45.576Z,98288.63
2022-11-17T23:51:14.756Z,98331.47
2022-11-17T23:53:42.056Z,98326.53
2022-11-17T23:56:09.990Z,98248.22
2022-11-17T23:58:37.524Z,98337.09
